sensor_id;sensor_type;location;lat;lon;timestamp;P1;durP1;ratioP1;P2;durP2;ratioP2
17259;SDS011;8746;49.230;9.220;2022-12-10T00:00:34;20.23;;;13.53;;
17259;SDS011;8746;49.230;9.220;2022-12-10T00:02:59;18.63;;;13.63;;
17259;SDS011;8746;49.230;9.220;2022-12-10T00:05:26;18.87;;;13.63;;
17259;SDS011;8746;49.230;9.220;2022-12-10T00:07:51;21.03;;;14.20;;
17259;SDS011;8746;49.230;9.220;2022-12-10T00:10:16;19.40;;;14.03;;
17259;SDS011;8746;49.230;9.220;2022-12-10T00:12:42;18.27;;;13.20;;
17259;SDS011;8746;49.230;9.220;2022-12-10T00:15:07;20.13;;;14.33;;
17259;SDS011;8746;49.230;9.220;2022-12-10T00:17:33;21.90;;;13.77;;
17259;SDS011;8746;49.230;9.220;2022-12-10T00:19:58;19.43;;;13.27;;
17259;SDS011;8746;49.230;9.220;2022-12-10T00:22:23;16.87;;;12.90;;
17259;SDS011;8746;49.230;9.220;2022-12-10T00:24:49;20.57;;;14.53;;
17259;SDS011;8746;49.230;9.220;2022-12-10T00:27:14;19.80;;;13.90;;
17259;SDS011;8746;49.230;9.220;2022-12-10T00:29:39;22.73;;;14.03;;
17259;SDS011;8746;49.230;9.220;2022-12-10T00:32:05;19.87;;;14.00;;
17259;SDS011;8746;49.230;9.220;2022-12-10T00:34:31;20.77;;;15.43;;
17259;SDS011;8746;49.230;9.220;2022-12-10T00:36:57;18.57;;;13.87;;
17259;SDS011;8746;49.230;9.220;2022-12-10T00:39:22;21.33;;;14.43;;
17259;SDS011;8746;49.230;9.220;2022-12-10T00:41:47;21.00;;;14.37;;
17259;SDS011;8746;49.230;9.220;2022-12-10T00:44:13;20.50;;;14.57;;
17259;SDS011;8746;49.230;9.220;2022-12-10T00:46:40;21.97;;;14.27;;
17259;SDS011;8746;49.230;9.220;2022-12-10T00:49:05;19.00;;;13.50;;
17259;SDS011;8746;49.230;9.220;2022-12-10T00:51:30;19.83;;;12.90;;
17259;SDS011;8746;49.230;9.220;2022-12-10T00:53:57;19.03;;;13.70;;
17259;SDS011;8746;49.230;9.220;2022-12-10T00:56:24;20.13;;;13.27;;
17259;SDS011;8746;49.230;9.220;2022-12-10T00:58:52;18.53;;;13.40;;
17259;SDS011;8746;49.230;9.220;2022-12-10T01:03:46;18.70;;;13.53;;
17259;SDS011;8746;49.230;9.220;2022-12-10T01:06:26;19.13;;;13.23;;
17259;SDS011;8746;49.230;9.220;2022-12-10T01:08:53;19.90;;;13.40;;
17259;SDS011;8746;49.230;9.220;2022-12-10T01:11:21;19.57;;;13.53;;
17259;SDS011;8746;49.230;9.220;2022-12-10T01:13:49;18.63;;;13.50;;
17259;SDS011;8746;49.230;9.220;2022-12-10T01:16:17;18.10;;;12.70;;
17259;SDS011;8746;49.230;9.220;2022-12-10T01:18:43;20.10;;;14.23;;
17259;SDS011;8746;49.230;9.220;2022-12-10T01:21:10;17.80;;;12.57;;
17259;SDS011;8746;49.230;9.220;2022-12-10T01:23:39;19.47;;;13.97;;
17259;SDS011;8746;49.230;9.220;2022-12-10T01:26:08;20.07;;;13.90;;
17259;SDS011;8746;49.230;9.220;2022-12-10T01:28:37;18.20;;;13.97;;
17259;SDS011;8746;49.230;9.220;2022-12-10T01:31:05;20.63;;;14.03;;
17259;SDS011;8746;49.230;9.220;2022-12-10T01:33:33;20.33;;;13.97;;
17259;SDS011;8746;49.230;9.220;2022-12-10T01:36:06;20.30;;;13.90;;
17259;SDS011;8746;49.230;9.220;2022-12-10T01:38:33;21.87;;;13.67;;
17259;SDS011;8746;49.230;9.220;2022-12-10T01:40:59;20.93;;;14.70;;
17259;SDS011;8746;49.230;9.220;2022-12-10T01:43:25;18.00;;;13.37;;
17259;SDS011;8746;49.230;9.220;2022-12-10T01:45:51;19.57;;;13.37;;
17259;SDS011;8746;49.230;9.220;2022-12-10T01:48:17;19.73;;;13.47;;
17259;SDS011;8746;49.230;9.220;2022-12-10T01:50:43;20.30;;;13.77;;
17259;SDS011;8746;49.230;9.220;2022-12-10T01:53:08;17.40;;;13.13;;
17259;SDS011;8746;49.230;9.220;2022-12-10T01:55:36;18.67;;;13.40;;
17259;SDS011;8746;49.230;9.220;2022-12-10T01:58:16;21.43;;;13.10;;
17259;SDS011;8746;49.230;9.220;2022-12-10T02:00:45;19.03;;;13.83;;
17259;SDS011;8746;49.230;9.220;2022-12-10T02:03:21;22.80;;;14.23;;
17259;SDS011;8746;49.230;9.220;2022-12-10T02:09:04;18.07;;;12.77;;
17259;SDS011;8746;49.230;9.220;2022-12-10T02:11:42;19.27;;;13.77;;
17259;SDS011;8746;49.230;9.220;2022-12-10T02:16:59;20.07;;;13.80;;
17259;SDS011;8746;49.230;9.220;2022-12-10T02:22:11;19.20;;;13.43;;
17259;SDS011;8746;49.230;9.220;2022-12-10T02:24:38;22.07;;;14.43;;
17259;SDS011;8746;49.230;9.220;2022-12-10T02:27:53;21.73;;;14.17;;
17259;SDS011;8746;49.230;9.220;2022-12-10T02:29:59;20.47;;;13.77;;
17259;SDS011;8746;49.230;9.220;2022-12-10T02:32:29;20.87;;;14.17;;
17259;SDS011;8746;49.230;9.220;2022-12-10T02:35:16;20.07;;;14.43;;
17259;SDS011;8746;49.230;9.220;2022-12-10T02:37:56;19.60;;;13.50;;
17259;SDS011;8746;49.230;9.220;2022-12-10T02:40:28;19.13;;;13.80;;
17259;SDS011;8746;49.230;9.220;2022-12-10T02:42:57;20.57;;;14.00;;
17259;SDS011;8746;49.230;9.220;2022-12-10T02:45:24;17.23;;;12.77;;
17259;SDS011;8746;49.230;9.220;2022-12-10T02:47:53;19.00;;;14.33;;
17259;SDS011;8746;49.230;9.220;2022-12-10T02:50:22;20.63;;;14.00;;
17259;SDS011;8746;49.230;9.220;2022-12-10T02:52:48;18.57;;;13.73;;
17259;SDS011;8746;49.230;9.220;2022-12-10T02:55:14;20.07;;;13.93;;
17259;SDS011;8746;49.230;9.220;2022-12-10T03:00:24;17.00;;;12.80;;
17259;SDS011;8746;49.230;9.220;2022-12-10T03:05:45;17.80;;;13.30;;
17259;SDS011;8746;49.230;9.220;2022-12-10T03:11:01;18.27;;;13.23;;
17259;SDS011;8746;49.230;9.220;2022-12-10T03:13:37;19.97;;;13.17;;
17259;SDS011;8746;49.230;9.220;2022-12-10T03:16:08;20.67;;;14.23;;
17259;SDS011;8746;49.230;9.220;2022-12-10T03:18:35;18.30;;;13.50;;
17259;SDS011;8746;49.230;9.220;2022-12-10T03:21:03;18.67;;;13.33;;
17259;SDS011;8746;49.230;9.220;2022-12-10T03:23:32;18.17;;;13.00;;
17259;SDS011;8746;49.230;9.220;2022-12-10T03:25:59;19.00;;;14.00;;
17259;SDS011;8746;49.230;9.220;2022-12-10T03:28:25;19.40;;;13.70;;
17259;SDS011;8746;49.230;9.220;2022-12-10T03:30:51;20.33;;;14.03;;
17259;SDS011;8746;49.230;9.220;2022-12-10T03:33:17;21.13;;;13.33;;
17259;SDS011;8746;49.230;9.220;2022-12-10T03:35:43;20.53;;;13.63;;
17259;SDS011;8746;49.230;9.220;2022-12-10T03:38:09;21.13;;;13.70;;
17259;SDS011;8746;49.230;9.220;2022-12-10T03:40:35;19.43;;;13.57;;
17259;SDS011;8746;49.230;9.220;2022-12-10T03:43:01;18.90;;;13.90;;
17259;SDS011;8746;49.230;9.220;2022-12-10T03:45:27;19.33;;;13.73;;
17259;SDS011;8746;49.230;9.220;2022-12-10T03:47:52;19.47;;;12.73;;
17259;SDS011;8746;49.230;9.220;2022-12-10T03:50:17;18.37;;;13.77;;
17259;SDS011;8746;49.230;9.220;2022-12-10T03:52:43;20.63;;;13.67;;
17259;SDS011;8746;49.230;9.220;2022-12-10T03:55:08;16.60;;;12.73;;
17259;SDS011;8746;49.230;9.220;2022-12-10T03:57:34;21.23;;;14.77;;
17259;SDS011;8746;49.230;9.220;2022-12-10T04:00:00;18.57;;;13.20;;
17259;SDS011;8746;49.230;9.220;2022-12-10T04:02:26;20.37;;;14.07;;
17259;SDS011;8746;49.230;9.220;2022-12-10T04:04:51;18.77;;;13.77;;
17259;SDS011;8746;49.230;9.220;2022-12-10T04:07:16;20.93;;;13.83;;
17259;SDS011;8746;49.230;9.220;2022-12-10T04:09:42;20.27;;;14.30;;
17259;SDS011;8746;49.230;9.220;2022-12-10T04:12:07;20.37;;;14.07;;
17259;SDS011;8746;49.230;9.220;2022-12-10T04:14:32;17.67;;;13.13;;
17259;SDS011;8746;49.230;9.220;2022-12-10T04:17:16;18.53;;;13.80;;
17259;SDS011;8746;49.230;9.220;2022-12-10T04:19:42;19.83;;;13.87;;
17259;SDS011;8746;49.230;9.220;2022-12-10T04:22:08;19.13;;;13.87;;
17259;SDS011;8746;49.230;9.220;2022-12-10T04:24:52;18.90;;;13.93;;
17259;SDS011;8746;49.230;9.220;2022-12-10T04:27:52;20.83;;;14.17;;
17259;SDS011;8746;49.230;9.220;2022-12-10T04:30:18;21.37;;;14.63;;
17259;SDS011;8746;49.230;9.220;2022-12-10T04:32:43;20.67;;;14.03;;
17259;SDS011;8746;49.230;9.220;2022-12-10T04:35:09;17.90;;;13.43;;
17259;SDS011;8746;49.230;9.220;2022-12-10T04:37:34;18.90;;;13.23;;
17259;SDS011;8746;49.230;9.220;2022-12-10T04:40:00;18.07;;;13.37;;
17259;SDS011;8746;49.230;9.220;2022-12-10T04:42:25;19.80;;;13.80;;
17259;SDS011;8746;49.230;9.220;2022-12-10T04:44:51;18.93;;;14.23;;
17259;SDS011;8746;49.230;9.220;2022-12-10T04:47:16;21.00;;;14.20;;
17259;SDS011;8746;49.230;9.220;2022-12-10T04:49:41;19.63;;;14.13;;
17259;SDS011;8746;49.230;9.220;2022-12-10T04:52:08;19.37;;;13.47;;
17259;SDS011;8746;49.230;9.220;2022-12-10T04:54:36;21.17;;;14.60;;
17259;SDS011;8746;49.230;9.220;2022-12-10T04:57:01;20.87;;;14.33;;
17259;SDS011;8746;49.230;9.220;2022-12-10T04:59:26;23.43;;;15.03;;
17259;SDS011;8746;49.230;9.220;2022-12-10T05:01:52;20.63;;;14.90;;
17259;SDS011;8746;49.230;9.220;2022-12-10T05:04:17;20.50;;;15.17;;
17259;SDS011;8746;49.230;9.220;2022-12-10T05:06:44;21.10;;;15.17;;
17259;SDS011;8746;49.230;9.220;2022-12-10T05:09:10;19.67;;;14.03;;
17259;SDS011;8746;49.230;9.220;2022-12-10T05:11:36;20.80;;;13.73;;
17259;SDS011;8746;49.230;9.220;2022-12-10T05:14:02;18.37;;;13.50;;
17259;SDS011;8746;49.230;9.220;2022-12-10T05:16:29;20.40;;;14.47;;
17259;SDS011;8746;49.230;9.220;2022-12-10T05:18:56;19.03;;;13.97;;
17259;SDS011;8746;49.230;9.220;2022-12-10T05:21:22;20.73;;;14.40;;
17259;SDS011;8746;49.230;9.220;2022-12-10T05:23:50;20.57;;;14.00;;
17259;SDS011;8746;49.230;9.220;2022-12-10T05:26:17;18.23;;;13.97;;
17259;SDS011;8746;49.230;9.220;2022-12-10T05:28:46;20.13;;;14.27;;
17259;SDS011;8746;49.230;9.220;2022-12-10T05:31:21;17.83;;;13.00;;
17259;SDS011;8746;49.230;9.220;2022-12-10T05:33:48;19.27;;;13.73;;
17259;SDS011;8746;49.230;9.220;2022-12-10T05:36:15;19.40;;;13.40;;
17259;SDS011;8746;49.230;9.220;2022-12-10T05:38:42;19.80;;;13.70;;
17259;SDS011;8746;49.230;9.220;2022-12-10T05:41:09;20.37;;;13.40;;
17259;SDS011;8746;49.230;9.220;2022-12-10T05:43:37;18.63;;;13.53;;
17259;SDS011;8746;49.230;9.220;2022-12-10T05:46:04;19.67;;;13.73;;
17259;SDS011;8746;49.230;9.220;2022-12-10T05:48:31;18.00;;;13.50;;
17259;SDS011;8746;49.230;9.220;2022-12-10T05:50:57;19.90;;;14.57;;
17259;SDS011;8746;49.230;9.220;2022-12-10T05:53:23;20.43;;;14.50;;
17259;SDS011;8746;49.230;9.220;2022-12-10T05:55:48;20.73;;;14.80;;
17259;SDS011;8746;49.230;9.220;2022-12-10T05:58:14;18.77;;;13.80;;
17259;SDS011;8746;49.230;9.220;2022-12-10T06:00:40;20.20;;;14.80;;
17259;SDS011;8746;49.230;9.220;2022-12-10T06:03:06;20.07;;;14.13;;
17259;SDS011;8746;49.230;9.220;2022-12-10T06:05:38;20.10;;;14.50;;
17259;SDS011;8746;49.230;9.220;2022-12-10T06:08:05;21.80;;;13.93;;
17259;SDS011;8746;49.230;9.220;2022-12-10T06:10:31;22.57;;;14.43;;
17259;SDS011;8746;49.230;9.220;2022-12-10T06:12:58;21.50;;;14.97;;
17259;SDS011;8746;49.230;9.220;2022-12-10T06:15:24;21.03;;;14.73;;
17259;SDS011;8746;49.230;9.220;2022-12-10T06:17:49;20.33;;;14.73;;
17259;SDS011;8746;49.230;9.220;2022-12-10T06:20:14;18.73;;;13.37;;
17259;SDS011;8746;49.230;9.220;2022-12-10T06:22:40;19.73;;;15.10;;
17259;SDS011;8746;49.230;9.220;2022-12-10T06:25:05;22.37;;;15.23;;
17259;SDS011;8746;49.230;9.220;2022-12-10T06:27:31;20.27;;;14.17;;
17259;SDS011;8746;49.230;9.220;2022-12-10T06:29:57;20.37;;;14.80;;
17259;SDS011;8746;49.230;9.220;2022-12-10T06:32:22;22.57;;;14.77;;
17259;SDS011;8746;49.230;9.220;2022-12-10T06:34:48;20.97;;;14.30;;
17259;SDS011;8746;49.230;9.220;2022-12-10T06:37:13;18.70;;;13.87;;
17259;SDS011;8746;49.230;9.220;2022-12-10T06:39:39;20.00;;;14.50;;
17259;SDS011;8746;49.230;9.220;2022-12-10T06:42:04;22.30;;;14.63;;
17259;SDS011;8746;49.230;9.220;2022-12-10T06:44:30;20.83;;;14.67;;
17259;SDS011;8746;49.230;9.220;2022-12-10T06:46:56;19.67;;;13.90;;
17259;SDS011;8746;49.230;9.220;2022-12-10T06:49:21;20.97;;;14.50;;
17259;SDS011;8746;49.230;9.220;2022-12-10T06:51:47;20.63;;;14.03;;
17259;SDS011;8746;49.230;9.220;2022-12-10T06:54:12;20.90;;;14.87;;
17259;SDS011;8746;49.230;9.220;2022-12-10T06:56:37;22.37;;;15.43;;
17259;SDS011;8746;49.230;9.220;2022-12-10T06:59:06;26.30;;;16.10;;
17259;SDS011;8746;49.230;9.220;2022-12-10T07:01:31;22.63;;;15.47;;
17259;SDS011;8746;49.230;9.220;2022-12-10T07:03:57;22.20;;;15.10;;
17259;SDS011;8746;49.230;9.220;2022-12-10T07:06:23;24.10;;;15.07;;
17259;SDS011;8746;49.230;9.220;2022-12-10T07:08:49;25.90;;;15.40;;
17259;SDS011;8746;49.230;9.220;2022-12-10T07:11:17;22.50;;;14.87;;
17259;SDS011;8746;49.230;9.220;2022-12-10T07:13:44;22.53;;;15.07;;
17259;SDS011;8746;49.230;9.220;2022-12-10T07:16:20;24.03;;;15.93;;
17259;SDS011;8746;49.230;9.220;2022-12-10T07:18:47;20.10;;;14.27;;
17259;SDS011;8746;49.230;9.220;2022-12-10T07:21:18;18.73;;;13.80;;
17259;SDS011;8746;49.230;9.220;2022-12-10T07:23:46;19.13;;;13.67;;
17259;SDS011;8746;49.230;9.220;2022-12-10T07:26:11;19.70;;;14.83;;
17259;SDS011;8746;49.230;9.220;2022-12-10T07:28:37;21.10;;;14.93;;
17259;SDS011;8746;49.230;9.220;2022-12-10T07:31:03;25.30;;;16.80;;
17259;SDS011;8746;49.230;9.220;2022-12-10T07:33:29;25.37;;;18.03;;
17259;SDS011;8746;49.230;9.220;2022-12-10T07:35:55;23.80;;;16.77;;
17259;SDS011;8746;49.230;9.220;2022-12-10T07:38:21;20.93;;;15.03;;
17259;SDS011;8746;49.230;9.220;2022-12-10T07:40:50;24.03;;;16.00;;
17259;SDS011;8746;49.230;9.220;2022-12-10T07:43:16;21.80;;;15.30;;
17259;SDS011;8746;49.230;9.220;2022-12-10T07:45:41;21.27;;;15.10;;
17259;SDS011;8746;49.230;9.220;2022-12-10T07:48:07;23.80;;;15.23;;
17259;SDS011;8746;49.230;9.220;2022-12-10T07:50:33;21.70;;;14.07;;
17259;SDS011;8746;49.230;9.220;2022-12-10T07:52:59;22.93;;;15.40;;
17259;SDS011;8746;49.230;9.220;2022-12-10T07:55:24;19.87;;;13.93;;
17259;SDS011;8746;49.230;9.220;2022-12-10T07:57:50;19.97;;;13.87;;
17259;SDS011;8746;49.230;9.220;2022-12-10T08:00:15;19.67;;;14.53;;
17259;SDS011;8746;49.230;9.220;2022-12-10T08:02:41;21.03;;;14.17;;
17259;SDS011;8746;49.230;9.220;2022-12-10T08:05:06;20.40;;;13.73;;
17259;SDS011;8746;49.230;9.220;2022-12-10T08:07:32;20.60;;;13.53;;
17259;SDS011;8746;49.230;9.220;2022-12-10T08:09:58;19.57;;;14.53;;
17259;SDS011;8746;49.230;9.220;2022-12-10T08:12:23;23.70;;;14.57;;
17259;SDS011;8746;49.230;9.220;2022-12-10T08:14:48;20.23;;;14.33;;
17259;SDS011;8746;49.230;9.220;2022-12-10T08:17:14;22.47;;;15.63;;
17259;SDS011;8746;49.230;9.220;2022-12-10T08:19:39;23.37;;;16.03;;
17259;SDS011;8746;49.230;9.220;2022-12-10T08:22:04;25.17;;;16.67;;
17259;SDS011;8746;49.230;9.220;2022-12-10T08:24:30;22.83;;;15.03;;
17259;SDS011;8746;49.230;9.220;2022-12-10T08:26:55;22.73;;;15.83;;
17259;SDS011;8746;49.230;9.220;2022-12-10T08:29:21;22.73;;;16.53;;
17259;SDS011;8746;49.230;9.220;2022-12-10T08:31:46;23.37;;;14.90;;
17259;SDS011;8746;49.230;9.220;2022-12-10T08:34:13;23.43;;;15.87;;
17259;SDS011;8746;49.230;9.220;2022-12-10T08:36:40;23.63;;;16.17;;
17259;SDS011;8746;49.230;9.220;2022-12-10T08:39:05;22.17;;;14.80;;
17259;SDS011;8746;49.230;9.220;2022-12-10T08:41:31;22.30;;;14.97;;
17259;SDS011;8746;49.230;9.220;2022-12-10T08:43:56;19.43;;;14.33;;
17259;SDS011;8746;49.230;9.220;2022-12-10T08:46:23;21.90;;;14.67;;
17259;SDS011;8746;49.230;9.220;2022-12-10T08:48:50;19.77;;;14.23;;
17259;SDS011;8746;49.230;9.220;2022-12-10T08:51:17;17.83;;;13.27;;
17259;SDS011;8746;49.230;9.220;2022-12-10T08:53:44;20.80;;;13.87;;
17259;SDS011;8746;49.230;9.220;2022-12-10T08:56:10;17.97;;;13.03;;
17259;SDS011;8746;49.230;9.220;2022-12-10T08:58:36;18.33;;;15.20;;
17259;SDS011;8746;49.230;9.220;2022-12-10T09:01:05;23.10;;;14.40;;
17259;SDS011;8746;49.230;9.220;2022-12-10T09:03:32;18.33;;;13.30;;
17259;SDS011;8746;49.230;9.220;2022-12-10T09:06:01;16.77;;;12.47;;
17259;SDS011;8746;49.230;9.220;2022-12-10T09:08:27;18.17;;;13.10;;
17259;SDS011;8746;49.230;9.220;2022-12-10T09:10:52;17.37;;;12.93;;
17259;SDS011;8746;49.230;9.220;2022-12-10T09:13:17;18.87;;;13.10;;
17259;SDS011;8746;49.230;9.220;2022-12-10T09:15:48;16.83;;;12.63;;
17259;SDS011;8746;49.230;9.220;2022-12-10T09:18:15;17.60;;;13.57;;
17259;SDS011;8746;49.230;9.220;2022-12-10T09:20:41;17.70;;;13.50;;
17259;SDS011;8746;49.230;9.220;2022-12-10T09:23:06;18.13;;;13.60;;
17259;SDS011;8746;49.230;9.220;2022-12-10T09:25:31;19.93;;;13.67;;
17259;SDS011;8746;49.230;9.220;2022-12-10T09:27:56;18.97;;;13.30;;
17259;SDS011;8746;49.230;9.220;2022-12-10T09:30:22;17.63;;;13.20;;
17259;SDS011;8746;49.230;9.220;2022-12-10T09:32:47;15.90;;;12.70;;
17259;SDS011;8746;49.230;9.220;2022-12-10T09:35:12;17.57;;;12.70;;
17259;SDS011;8746;49.230;9.220;2022-12-10T09:37:38;18.53;;;13.23;;
17259;SDS011;8746;49.230;9.220;2022-12-10T09:40:03;28.50;;;14.00;;
17259;SDS011;8746;49.230;9.220;2022-12-10T09:42:44;20.50;;;13.83;;
17259;SDS011;8746;49.230;9.220;2022-12-10T09:45:40;21.53;;;12.83;;
17259;SDS011;8746;49.230;9.220;2022-12-10T09:48:27;18.70;;;13.20;;
17259;SDS011;8746;49.230;9.220;2022-12-10T09:51:05;17.90;;;13.03;;
17259;SDS011;8746;49.230;9.220;2022-12-10T09:53:41;19.23;;;15.17;;
17259;SDS011;8746;49.230;9.220;2022-12-10T09:56:10;17.43;;;12.60;;
17259;SDS011;8746;49.230;9.220;2022-12-10T09:58:46;17.70;;;12.97;;
17259;SDS011;8746;49.230;9.220;2022-12-10T10:01:12;20.37;;;12.90;;
17259;SDS011;8746;49.230;9.220;2022-12-10T10:03:40;16.37;;;12.20;;
17259;SDS011;8746;49.230;9.220;2022-12-10T10:06:08;16.20;;;11.80;;
17259;SDS011;8746;49.230;9.220;2022-12-10T10:08:46;15.70;;;11.40;;
17259;SDS011;8746;49.230;9.220;2022-12-10T10:11:19;16.13;;;11.87;;
17259;SDS011;8746;49.230;9.220;2022-12-10T10:13:49;16.00;;;11.13;;
17259;SDS011;8746;49.230;9.220;2022-12-10T10:16:37;15.87;;;11.40;;
17259;SDS011;8746;49.230;9.220;2022-12-10T10:19:18;14.90;;;10.83;;
17259;SDS011;8746;49.230;9.220;2022-12-10T10:21:49;15.20;;;11.47;;
17259;SDS011;8746;49.230;9.220;2022-12-10T10:24:20;15.93;;;11.23;;
17259;SDS011;8746;49.230;9.220;2022-12-10T10:26:48;16.33;;;11.23;;
17259;SDS011;8746;49.230;9.220;2022-12-10T10:29:16;16.70;;;11.90;;
17259;SDS011;8746;49.230;9.220;2022-12-10T10:31:45;16.30;;;11.83;;
17259;SDS011;8746;49.230;9.220;2022-12-10T10:36:43;16.23;;;11.30;;
17259;SDS011;8746;49.230;9.220;2022-12-10T10:39:11;17.37;;;12.27;;
17259;SDS011;8746;49.230;9.220;2022-12-10T10:41:44;15.93;;;11.90;;
17259;SDS011;8746;49.230;9.220;2022-12-10T10:44:16;14.80;;;11.07;;
17259;SDS011;8746;49.230;9.220;2022-12-10T10:46:46;16.17;;;11.57;;
17259;SDS011;8746;49.230;9.220;2022-12-10T10:49:15;14.03;;;10.57;;
17259;SDS011;8746;49.230;9.220;2022-12-10T10:51:46;16.50;;;12.20;;
17259;SDS011;8746;49.230;9.220;2022-12-10T10:54:12;15.20;;;11.07;;
17259;SDS011;8746;49.230;9.220;2022-12-10T10:57:33;14.07;;;11.53;;
17259;SDS011;8746;49.230;9.220;2022-12-10T11:00:04;16.20;;;10.63;;
17259;SDS011;8746;49.230;9.220;2022-12-10T11:02:44;14.53;;;10.73;;
17259;SDS011;8746;49.230;9.220;2022-12-10T11:07:59;13.50;;;10.87;;
17259;SDS011;8746;49.230;9.220;2022-12-10T11:10:27;15.00;;;11.03;;
17259;SDS011;8746;49.230;9.220;2022-12-10T11:12:57;17.97;;;12.43;;
17259;SDS011;8746;49.230;9.220;2022-12-10T11:15:32;17.47;;;12.43;;
17259;SDS011;8746;49.230;9.220;2022-12-10T11:18:00;14.20;;;9.93;;
17259;SDS011;8746;49.230;9.220;2022-12-10T11:20:31;15.50;;;11.07;;
17259;SDS011;8746;49.230;9.220;2022-12-10T11:23:04;15.43;;;11.23;;
17259;SDS011;8746;49.230;9.220;2022-12-10T11:25:51;17.57;;;10.73;;
17259;SDS011;8746;49.230;9.220;2022-12-10T11:37:16;13.20;;;10.13;;
17259;SDS011;8746;49.230;9.220;2022-12-10T11:45:24;15.00;;;10.37;;
17259;SDS011;8746;49.230;9.220;2022-12-10T11:50:53;13.27;;;9.00;;
17259;SDS011;8746;49.230;9.220;2022-12-10T11:56:45;13.60;;;9.67;;
17259;SDS011;8746;49.230;9.220;2022-12-10T12:01:57;14.43;;;10.00;;
17259;SDS011;8746;49.230;9.220;2022-12-10T12:04:33;13.73;;;10.00;;
17259;SDS011;8746;49.230;9.220;2022-12-10T12:18:06;12.83;;;9.03;;
17259;SDS011;8746;49.230;9.220;2022-12-10T12:20:43;13.50;;;9.67;;
17259;SDS011;8746;49.230;9.220;2022-12-10T12:23:22;12.57;;;9.43;;
17259;SDS011;8746;49.230;9.220;2022-12-10T12:25:53;12.23;;;9.23;;
17259;SDS011;8746;49.230;9.220;2022-12-10T12:30:58;10.77;;;8.47;;
17259;SDS011;8746;49.230;9.220;2022-12-10T12:33:49;11.33;;;7.80;;
17259;SDS011;8746;49.230;9.220;2022-12-10T12:36:21;13.07;;;9.47;;
17259;SDS011;8746;49.230;9.220;2022-12-10T12:38:55;14.97;;;10.40;;
17259;SDS011;8746;49.230;9.220;2022-12-10T12:43:52;11.87;;;8.83;;
17259;SDS011;8746;49.230;9.220;2022-12-10T12:46:45;13.70;;;8.77;;
17259;SDS011;8746;49.230;9.220;2022-12-10T12:49:23;14.73;;;9.83;;
17259;SDS011;8746;49.230;9.220;2022-12-10T12:52:02;10.20;;;8.13;;
17259;SDS011;8746;49.230;9.220;2022-12-10T12:54:38;10.57;;;8.50;;
17259;SDS011;8746;49.230;9.220;2022-12-10T12:57:07;10.67;;;8.23;;
17259;SDS011;8746;49.230;9.220;2022-12-10T12:59:49;10.80;;;9.07;;
17259;SDS011;8746;49.230;9.220;2022-12-10T13:02:26;10.27;;;7.80;;
17259;SDS011;8746;49.230;9.220;2022-12-10T13:05:29;11.23;;;8.40;;
17259;SDS011;8746;49.230;9.220;2022-12-10T13:13:24;9.47;;;7.17;;
17259;SDS011;8746;49.230;9.220;2022-12-10T13:19:24;9.10;;;6.97;;
17259;SDS011;8746;49.230;9.220;2022-12-10T13:32:47;9.40;;;7.37;;
17259;SDS011;8746;49.230;9.220;2022-12-10T13:35:28;10.63;;;7.87;;
17259;SDS011;8746;49.230;9.220;2022-12-10T13:37:57;9.43;;;7.47;;
17259;SDS011;8746;49.230;9.220;2022-12-10T13:46:23;9.33;;;7.00;;
17259;SDS011;8746;49.230;9.220;2022-12-10T13:48:56;9.23;;;6.93;;
17259;SDS011;8746;49.230;9.220;2022-12-10T13:56:57;10.80;;;7.83;;
17259;SDS011;8746;49.230;9.220;2022-12-10T13:59:42;10.33;;;7.33;;
17259;SDS011;8746;49.230;9.220;2022-12-10T14:07:56;10.73;;;8.17;;
17259;SDS011;8746;49.230;9.220;2022-12-10T14:10:30;9.27;;;7.20;;
17259;SDS011;8746;49.230;9.220;2022-12-10T14:12:57;9.33;;;7.10;;
17259;SDS011;8746;49.230;9.220;2022-12-10T14:15:25;8.97;;;6.90;;
17259;SDS011;8746;49.230;9.220;2022-12-10T14:17:56;9.43;;;7.57;;
17259;SDS011;8746;49.230;9.220;2022-12-10T14:20:26;9.50;;;6.97;;
17259;SDS011;8746;49.230;9.220;2022-12-10T14:22:56;9.63;;;7.50;;
17259;SDS011;8746;49.230;9.220;2022-12-10T14:25:42;12.50;;;8.30;;
17259;SDS011;8746;49.230;9.220;2022-12-10T14:28:12;11.43;;;8.93;;
17259;SDS011;8746;49.230;9.220;2022-12-10T14:30:44;13.30;;;9.30;;
17259;SDS011;8746;49.230;9.220;2022-12-10T14:33:12;14.53;;;9.90;;
17259;SDS011;8746;49.230;9.220;2022-12-10T14:35:42;15.37;;;10.23;;
17259;SDS011;8746;49.230;9.220;2022-12-10T14:38:17;11.60;;;8.57;;
17259;SDS011;8746;49.230;9.220;2022-12-10T14:40:46;11.90;;;8.37;;
17259;SDS011;8746;49.230;9.220;2022-12-10T14:43:13;12.80;;;8.63;;
17259;SDS011;8746;49.230;9.220;2022-12-10T14:45:51;11.03;;;7.50;;
17259;SDS011;8746;49.230;9.220;2022-12-10T14:48:21;11.10;;;7.83;;
17259;SDS011;8746;49.230;9.220;2022-12-10T14:50:46;11.63;;;8.40;;
17259;SDS011;8746;49.230;9.220;2022-12-10T14:53:16;13.33;;;8.17;;
17259;SDS011;8746;49.230;9.220;2022-12-10T14:55:45;10.13;;;8.17;;
17259;SDS011;8746;49.230;9.220;2022-12-10T14:58:18;13.47;;;8.70;;
17259;SDS011;8746;49.230;9.220;2022-12-10T15:01:01;13.20;;;9.60;;
17259;SDS011;8746;49.230;9.220;2022-12-10T15:03:29;12.03;;;9.07;;
17259;SDS011;8746;49.230;9.220;2022-12-10T15:05:59;13.53;;;9.67;;
17259;SDS011;8746;49.230;9.220;2022-12-10T15:08:30;14.23;;;9.83;;
17259;SDS011;8746;49.230;9.220;2022-12-10T15:10:57;16.70;;;9.60;;
17259;SDS011;8746;49.230;9.220;2022-12-10T15:13:39;15.07;;;10.13;;
17259;SDS011;8746;49.230;9.220;2022-12-10T15:16:14;14.17;;;9.93;;
17259;SDS011;8746;49.230;9.220;2022-12-10T15:18:45;13.57;;;9.90;;
17259;SDS011;8746;49.230;9.220;2022-12-10T15:23:42;15.00;;;11.33;;
17259;SDS011;8746;49.230;9.220;2022-12-10T15:28:52;16.27;;;12.73;;
17259;SDS011;8746;49.230;9.220;2022-12-10T15:31:37;16.73;;;13.03;;
17259;SDS011;8746;49.230;9.220;2022-12-10T15:34:08;18.27;;;13.97;;
17259;SDS011;8746;49.230;9.220;2022-12-10T15:36:37;20.03;;;14.83;;
17259;SDS011;8746;49.230;9.220;2022-12-10T15:41:57;21.50;;;14.90;;
17259;SDS011;8746;49.230;9.220;2022-12-10T15:46:59;18.90;;;12.97;;
17259;SDS011;8746;49.230;9.220;2022-12-10T15:49:27;19.03;;;13.40;;
17259;SDS011;8746;49.230;9.220;2022-12-10T15:51:54;17.10;;;12.63;;
17259;SDS011;8746;49.230;9.220;2022-12-10T15:54:42;16.47;;;11.37;;
17259;SDS011;8746;49.230;9.220;2022-12-10T15:57:15;14.47;;;10.77;;
17259;SDS011;8746;49.230;9.220;2022-12-10T15:59:44;12.57;;;10.27;;
17259;SDS011;8746;49.230;9.220;2022-12-10T16:05:24;14.37;;;10.17;;
17259;SDS011;8746;49.230;9.220;2022-12-10T16:07:55;14.57;;;10.77;;
17259;SDS011;8746;49.230;9.220;2022-12-10T16:10:24;15.57;;;10.67;;
17259;SDS011;8746;49.230;9.220;2022-12-10T16:12:58;14.50;;;10.83;;
17259;SDS011;8746;49.230;9.220;2022-12-10T16:15:26;12.80;;;9.60;;
17259;SDS011;8746;49.230;9.220;2022-12-10T16:17:54;13.83;;;10.03;;
17259;SDS011;8746;49.230;9.220;2022-12-10T16:22:48;12.97;;;9.47;;
17259;SDS011;8746;49.230;9.220;2022-12-10T16:25:13;15.20;;;10.23;;
17259;SDS011;8746;49.230;9.220;2022-12-10T16:27:39;14.23;;;10.03;;
17259;SDS011;8746;49.230;9.220;2022-12-10T16:32:40;14.67;;;10.60;;
17259;SDS011;8746;49.230;9.220;2022-12-10T16:35:05;16.20;;;9.87;;
17259;SDS011;8746;49.230;9.220;2022-12-10T16:37:31;14.33;;;10.10;;
17259;SDS011;8746;49.230;9.220;2022-12-10T16:39:56;16.40;;;10.20;;
17259;SDS011;8746;49.230;9.220;2022-12-10T16:42:21;15.07;;;9.97;;
17259;SDS011;8746;49.230;9.220;2022-12-10T16:44:46;16.53;;;10.73;;
17259;SDS011;8746;49.230;9.220;2022-12-10T16:47:12;15.03;;;10.13;;
17259;SDS011;8746;49.230;9.220;2022-12-10T16:49:37;14.47;;;10.37;;